createdAt,value
2019-03-16T00:02:04.737Z,99439.72
2019-03-16T00:04:32.090Z,99432.88
2019-03-16T00:06:59.653Z,99440.95
2019-03-16T00:09:27.082Z,99438.80
2019-03-16T00:11:54.627Z,99443.69
2019-03-16T00:14:22.143Z,99452.13
2019-03-16T00:16:49.544Z,99454.48
2019-03-16T00:19:17.002Z,99449.89
2019-03-16T00:21:44.447Z,99450.34
2019-03-16T00:24:11.936Z,99465.32
2019-03-16T00:26:39.388Z,99468.88
2019-03-16T00:29:06.807Z,99479.48
2019-03-16T00:31:34.401Z,99475.08
2019-03-16T00:34:01.871Z,99478.14
2019-03-16T00:36:29.294Z,99473.03
2019-03-16T00:38:56.721Z,99482.06
2019-03-16T00:41:24.213Z,99494.21
2019-03-16T00:43:51.582Z,99498.84
2019-03-16T00:46:19.033Z,99496.83
2019-03-16T00:48:46.437Z,99507.18
2019-03-16T00:51:13.871Z,99500.64
2019-03-16T00:53:41.283Z,99506.58
2019-03-16T00:56:08.685Z,99506.81
2019-03-16T00:58:36.071Z,99506.47
2019-03-16T01:01:03.633Z,99508.86
2019-03-16T01:03:30.999Z,99510.17
2019-03-16T01:05:58.385Z,99507.06
2019-03-16T01:08:25.802Z,99508.03
2019-03-16T01:10:53.192Z,99497.66
2019-03-16T01:13:20.657Z,99495.30
2019-03-16T01:15:48.027Z,99505.91
2019-03-16T01:18:15.481Z,99510.99
2019-03-16T01:20:42.847Z,99522.42
2019-03-16T01:23:10.287Z,99508.52
2019-03-16T01:25:37.648Z,99515.40
2019-03-16T01:28:05.069Z,99509.38
2019-03-16T01:30:32.437Z,99510.08
2019-03-16T01:32:59.822Z,99512.07
2019-03-16T01:35:27.252Z,99514.46
2019-03-16T01:37:54.716Z,99517.19
2019-03-16T01:40:22.130Z,99523.59
2019-03-16T01:42:49.572Z,99519.33
2019-03-16T01:45:17.067Z,99519.89
2019-03-16T01:47:44.664Z,99520.55
2019-03-16T01:50:13.067Z,99517.30
2019-03-16T01:52:40.687Z,99519.47
2019-03-16T01:55:08.453Z,99525.64
2019-03-16T01:57:35.861Z,99530.53
2019-03-16T02:00:04.233Z,99528.25
2019-03-16T02:02:31.637Z,99537.66
2019-03-16T02:04:59.052Z,99519.35
2019-03-16T02:07:26.474Z,99523.98
2019-03-16T02:09:53.942Z,99534.00
2019-03-16T02:12:21.627Z,99529.84
2019-03-16T02:14:49.002Z,99529.95
2019-03-16T02:17:16.615Z,99537.92
2019-03-16T02:19:44.030Z,99530.87
2019-03-16T02:22:11.467Z,99532.46
2019-03-16T02:24:38.842Z,99540.30
2019-03-16T02:27:06.277Z,99533.66
2019-03-16T02:29:33.732Z,99523.39
2019-03-16T02:32:01.165Z,99517.96
2019-03-16T02:34:28.529Z,99523.56
2019-03-16T02:36:56.949Z,99529.95
2019-03-16T02:39:24.392Z,99538.74
2019-03-16T02:41:51.778Z,99533.52
2019-03-16T02:44:19.210Z,99527.23
2019-03-16T02:46:47.089Z,99546.36
2019-03-16T02:49:14.500Z,99554.69
2019-03-16T02:51:41.864Z,99555.27
2019-03-16T02:54:09.350Z,99549.91
2019-03-16T02:56:36.732Z,99558.36
2019-03-16T02:59:04.259Z,99560.41
2019-03-16T03:01:31.634Z,99569.58
2019-03-16T03:03:59.077Z,99565.75
2019-03-16T03:06:26.495Z,99565.75
2019-03-16T03:08:53.929Z,99564.33
2019-03-16T03:11:21.324Z,99566.95
2019-03-16T03:13:48.742Z,99562.31
2019-03-16T03:16:16.154Z,99575.16
2019-03-16T03:18:43.580Z,99583.23
2019-03-16T03:21:12.834Z,99586.08
2019-03-16T03:23:40.277Z,99592.95
2019-03-16T03:26:07.632Z,99585.59
2019-03-16T03:28:35.052Z,99586.30
2019-03-16T03:31:02.411Z,99592.59
2019-03-16T03:33:56.095Z,99590.11
2019-03-16T03:35:59.149Z,99593.44
2019-03-16T03:38:26.602Z,99594.87
2019-03-16T03:40:53.970Z,99605.20
2019-03-16T03:43:21.378Z,99593.44
2019-03-16T03:45:48.768Z,99589.89
2019-03-16T03:48:16.185Z,99582.98
2019-03-16T03:50:43.527Z,99590.23
2019-03-16T03:53:10.990Z,99591.77
2019-03-16T03:55:38.455Z,99593.67
2019-03-16T03:58:05.854Z,99595.80
2019-03-16T04:00:33.228Z,99592.50
2019-03-16T04:03:00.649Z,99593.20
2019-03-16T04:05:28.069Z,99592.63
2019-03-16T04:07:55.498Z,99583.00
2019-03-16T04:10:22.887Z,99587.16
2019-03-16T04:12:50.346Z,99575.38
2019-03-16T04:15:18.244Z,99582.16
2019-03-16T04:17:45.649Z,99581.67
2019-03-16T04:20:13.157Z,99588.46
2019-03-16T04:22:40.518Z,99590.36
2019-03-16T04:25:07.948Z,99597.59
2019-03-16T04:27:35.291Z,99598.19
2019-03-16T04:30:02.725Z,99600.23
2019-03-16T04:32:30.212Z,99604.50
2019-03-16T04:34:57.633Z,99606.89
2019-03-16T04:37:25.018Z,99609.30
2019-03-16T04:39:52.428Z,99615.20
2019-03-16T04:42:19.807Z,99607.48
2019-03-16T04:44:47.252Z,99608.20
2019-03-16T04:47:14.637Z,99606.88
2019-03-16T04:49:42.028Z,99615.09
2019-03-16T04:52:09.387Z,99606.05
2019-03-16T04:54:36.853Z,99602.06
2019-03-16T04:57:04.222Z,99608.14
2019-03-16T04:59:31.663Z,99622.51
2019-03-16T05:01:59.027Z,99619.22
2019-03-16T05:04:26.953Z,99627.05
2019-03-16T05:06:54.327Z,99615.30
2019-03-16T05:09:21.733Z,99628.25
2019-03-16T05:11:49.092Z,99631.70
2019-03-16T05:14:16.528Z,99633.25
2019-03-16T05:16:43.903Z,99632.66
2019-03-16T05:19:11.313Z,99634.80
2019-03-16T05:21:38.686Z,99638.23
2019-03-16T05:24:06.117Z,99637.88
2019-03-16T05:26:33.515Z,99639.88
2019-03-16T05:29:00.907Z,99647.37
2019-03-16T05:31:28.322Z,99646.77
2019-03-16T05:33:55.693Z,99643.19
2019-03-16T05:36:23.132Z,99642.47
2019-03-16T05:38:50.477Z,99641.15
2019-03-16T05:41:17.897Z,99635.93
2019-03-16T05:43:45.283Z,99643.03
2019-03-16T05:46:12.672Z,99635.44
2019-03-16T05:48:40.069Z,99639.00
2019-03-16T05:51:07.492Z,99638.52
2019-03-16T05:53:34.914Z,99643.41
2019-03-16T05:56:02.307Z,99640.08
2019-03-16T05:58:29.667Z,99638.62
2019-03-16T06:00:57.062Z,99640.31
2019-03-16T06:03:24.466Z,99638.77
2019-03-16T06:05:51.898Z,99643.41
2019-03-16T06:08:19.272Z,99653.07
2019-03-16T06:10:46.710Z,99647.36
2019-03-16T06:13:14.065Z,99646.65
2019-03-16T06:15:41.482Z,99639.05
2019-03-16T06:18:08.866Z,99632.67
2019-03-16T06:20:36.292Z,99634.42
2019-03-16T06:23:03.649Z,99641.47
2019-03-16T06:25:31.091Z,99635.81
2019-03-16T06:27:58.433Z,99632.10
2019-03-16T06:30:25.887Z,99635.44
2019-03-16T06:32:53.247Z,99633.41
2019-03-16T06:35:26.383Z,99630.59
2019-03-16T06:37:49.942Z,99631.17
2019-03-16T06:40:17.387Z,99632.52
2019-03-16T06:42:44.755Z,99632.30
2019-03-16T06:45:12.284Z,99635.62
2019-03-16T06:47:39.667Z,99636.48
2019-03-16T06:50:08.092Z,99633.79
2019-03-16T06:52:36.769Z,99629.98
2019-03-16T06:55:04.412Z,99626.06
2019-03-16T06:57:31.797Z,99633.31
2019-03-16T06:59:59.167Z,99625.83
2019-03-16T07:02:26.632Z,99622.88
2019-03-16T07:04:54.012Z,99616.25
2019-03-16T07:07:21.447Z,99605.43
2019-03-16T07:09:48.806Z,99601.46
2019-03-16T07:12:16.227Z,99594.26
2019-03-16T07:14:43.612Z,99598.73
2019-03-16T07:17:11.051Z,99591.83
2019-03-16T07:19:38.483Z,99583.48
2019-03-16T07:22:05.892Z,99586.90
2019-03-16T07:24:33.247Z,99581.33
2019-03-16T07:27:00.667Z,99586.83
2019-03-16T07:29:28.078Z,99595.75
2019-03-16T07:31:55.692Z,99601.02
2019-03-16T07:34:23.075Z,99596.66
2019-03-16T07:36:50.471Z,99606.73
2019-03-16T07:39:17.862Z,99599.77
2019-03-16T07:41:45.287Z,99592.03
2019-03-16T07:44:12.699Z,99583.14
2019-03-16T07:46:40.191Z,99567.33
2019-03-16T07:49:07.572Z,99562.20
2019-03-16T07:51:35.094Z,99557.55
2019-03-16T07:54:02.555Z,99558.05
2019-03-16T07:56:29.967Z,99556.85
2019-03-16T07:58:57.363Z,99564.82
2019-03-16T08:01:24.802Z,99562.59
2019-03-16T08:03:52.182Z,99563.96
2019-03-16T08:06:19.607Z,99558.16
2019-03-16T08:08:46.999Z,99558.03
2019-03-16T08:11:14.471Z,99556.02
2019-03-16T08:13:41.854Z,99560.03
2019-03-16T08:16:09.272Z,99549.02
2019-03-16T08:18:39.187Z,99553.41
2019-03-16T08:21:06.602Z,99555.68
2019-03-16T08:23:34.008Z,99553.41
2019-03-16T08:26:01.412Z,99560.05
2019-03-16T08:28:29.068Z,99548.20
2019-03-16T08:30:56.976Z,99543.56
2019-03-16T08:33:24.446Z,99537.27
2019-03-16T08:35:51.847Z,99529.78
2019-03-16T08:38:19.272Z,99521.17
2019-03-16T08:40:46.633Z,99518.67
2019-03-16T08:43:14.092Z,99517.05
2019-03-16T08:45:41.792Z,99509.91
2019-03-16T08:48:21.812Z,99501.24
2019-03-16T08:50:39.267Z,99494.14
2019-03-16T08:53:06.697Z,99483.45
2019-03-16T08:55:34.142Z,99483.33
2019-03-16T08:58:06.029Z,99480.58
2019-03-16T09:00:30.847Z,99472.03
2019-03-16T09:02:58.289Z,99469.95
2019-03-16T09:05:25.667Z,99466.50
2019-03-16T09:07:53.092Z,99460.16
2019-03-16T09:10:20.482Z,99458.12
2019-03-16T09:12:55.000Z,99442.09
2019-03-16T09:15:17.287Z,99450.33
2019-03-16T09:17:46.323Z,99435.04
2019-03-16T09:20:13.799Z,99427.31
2019-03-16T09:22:41.598Z,99434.33
2019-03-16T09:25:09.026Z,99429.80
2019-03-16T09:27:36.546Z,99421.22
2019-03-16T09:30:04.673Z,99419.57
2019-03-16T09:32:32.101Z,99416.70
2019-03-16T09:34:59.526Z,99420.14
2019-03-16T09:37:26.913Z,99414.06
2019-03-16T09:39:54.261Z,99414.26
2019-03-16T09:42:21.667Z,99400.45
2019-03-16T09:44:49.008Z,99403.45
2019-03-16T09:47:16.432Z,99405.69
2019-03-16T09:49:45.504Z,99401.13
2019-03-16T09:52:12.960Z,99394.67
2019-03-16T09:54:40.427Z,99390.32
2019-03-16T09:57:07.842Z,99377.31
2019-03-16T09:59:35.241Z,99377.71
2019-03-16T10:02:02.726Z,99380.91
2019-03-16T10:04:30.137Z,99378.91
2019-03-16T10:06:57.572Z,99375.05
2019-03-16T10:09:24.951Z,99372.77
2019-03-16T10:11:52.362Z,99370.14
2019-03-16T10:14:19.889Z,99357.62
2019-03-16T10:16:47.274Z,99360.67
2019-03-16T10:19:14.694Z,99349.09
2019-03-16T10:21:42.122Z,99346.70
2019-03-16T10:24:09.547Z,99340.28
2019-03-16T10:26:37.681Z,99341.16
2019-03-16T10:29:05.212Z,99343.64
2019-03-16T10:31:32.607Z,99337.02
2019-03-16T10:34:00.008Z,99335.34
2019-03-16T10:36:27.427Z,99331.58
2019-03-16T10:38:54.909Z,99331.97
2019-03-16T10:41:22.318Z,99328.24
2019-03-16T10:43:53.107Z,99335.33
2019-03-16T10:46:36.107Z,99331.80
2019-03-16T10:49:03.640Z,99310.70
2019-03-16T10:51:31.036Z,99327.80
2019-03-16T10:53:58.622Z,99318.42
2019-03-16T10:56:26.017Z,99306.86
2019-03-16T10:58:56.743Z,99292.63
2019-03-16T11:01:22.758Z,99321.19
2019-03-16T11:03:50.196Z,99306.64
2019-03-16T11:06:17.609Z,99313.84
2019-03-16T11:08:45.055Z,99296.66
2019-03-16T11:11:12.467Z,99296.55
2019-03-16T11:13:39.872Z,99293.16
2019-03-16T11:16:07.301Z,99308.20
2019-03-16T11:18:34.734Z,99299.25
2019-03-16T11:21:02.127Z,99294.61
2019-03-16T11:23:29.647Z,99305.19
2019-03-16T11:25:57.428Z,99308.88
2019-03-16T11:28:24.887Z,99302.30
2019-03-16T11:30:54.307Z,99297.91
2019-03-16T11:33:21.829Z,99310.36
2019-03-16T11:35:49.387Z,99294.19
2019-03-16T11:38:16.908Z,99291.23
2019-03-16T11:40:44.312Z,99306.83
2019-03-16T11:43:11.687Z,99301.66
2019-03-16T11:45:39.097Z,99300.41
2019-03-16T11:48:06.502Z,99295.02
2019-03-16T11:50:33.873Z,99291.57
2019-03-16T11:53:01.378Z,99292.91
2019-03-16T11:55:28.823Z,99287.90
2019-03-16T11:57:56.292Z,99307.41
2019-03-16T12:00:23.792Z,99297.55
2019-03-16T12:02:52.836Z,99284.02
2019-03-16T12:05:20.732Z,99296.47
2019-03-16T12:07:48.115Z,99291.77
2019-03-16T12:10:15.642Z,99283.33
2019-03-16T12:12:43.069Z,99273.31
2019-03-16T12:15:10.873Z,99281.69
2019-03-16T12:17:38.307Z,99274.52
2019-03-16T12:20:06.653Z,99274.77
2019-03-16T12:22:34.128Z,99272.41
2019-03-16T12:25:01.583Z,99273.88
2019-03-16T12:27:28.948Z,99261.70
2019-03-16T12:29:56.517Z,99264.22
2019-03-16T12:32:23.923Z,99263.44
2019-03-16T12:34:51.362Z,99257.52
2019-03-16T12:37:18.763Z,99251.55
2019-03-16T12:39:46.187Z,99254.45
2019-03-16T12:42:13.577Z,99246.84
2019-03-16T12:44:41.089Z,99235.80
2019-03-16T12:47:10.472Z,99241.23
2019-03-16T12:49:38.007Z,99234.78
2019-03-16T12:52:05.478Z,99216.05
2019-03-16T12:54:33.024Z,99222.13
2019-03-16T12:57:00.673Z,99224.00
2019-03-16T12:59:28.166Z,99205.01
2019-03-16T13:01:55.687Z,99210.84
2019-03-16T13:04:23.312Z,99197.87
2019-03-16T13:06:50.928Z,99190.62
2019-03-16T13:09:18.397Z,99188.13
2019-03-16T13:11:45.960Z,99211.48
2019-03-16T13:14:13.552Z,99209.99
2019-03-16T13:16:41.056Z,99201.95
2019-03-16T13:19:08.598Z,99208.86
2019-03-16T13:21:36.097Z,99201.14
2019-03-16T13:24:03.778Z,99196.23
2019-03-16T13:26:31.408Z,99189.80
2019-03-16T13:28:59.242Z,99190.30
2019-03-16T13:31:26.713Z,99187.84
2019-03-16T13:33:54.229Z,99190.80
2019-03-16T13:36:21.747Z,99194.70
2019-03-16T13:38:49.362Z,99200.02
2019-03-16T13:41:17.202Z,99198.97
2019-03-16T13:43:44.968Z,99179.07
2019-03-16T13:46:12.727Z,99176.58
2019-03-16T13:48:40.277Z,99172.17
2019-03-16T13:51:08.113Z,99192.09
2019-03-16T13:53:35.833Z,99180.25
2019-03-16T13:56:04.037Z,99183.42
2019-03-16T13:58:31.812Z,99193.27
2019-03-16T14:00:59.852Z,99181.75
2019-03-16T14:03:27.501Z,99179.58
2019-03-16T14:05:55.348Z,99177.80
2019-03-16T14:08:22.882Z,99181.07
2019-03-16T14:10:53.337Z,99161.84
2019-03-16T14:13:21.395Z,99188.18
2019-03-16T14:15:49.123Z,99173.89
2019-03-16T14:18:16.828Z,99159.08
2019-03-16T14:20:44.582Z,99170.81
2019-03-16T14:23:12.242Z,99158.16
2019-03-16T14:25:40.277Z,99153.89
2019-03-16T14:28:08.048Z,99167.30
2019-03-16T14:30:41.777Z,99155.59
2019-03-16T14:33:05.607Z,99163.34
2019-03-16T14:35:33.597Z,99155.21
2019-03-16T14:38:01.742Z,99160.30
2019-03-16T14:40:29.520Z,99153.36
2019-03-16T14:42:57.092Z,99155.67
2019-03-16T14:45:25.441Z,99166.69
2019-03-16T14:47:57.652Z,99166.19
2019-03-16T14:50:25.328Z,99172.41
2019-03-16T14:52:53.082Z,99173.45
2019-03-16T14:55:20.959Z,99152.28
2019-03-16T14:57:53.472Z,99155.67
2019-03-16T15:00:21.062Z,99152.69
2019-03-16T15:02:48.650Z,99147.94
2019-03-16T15:05:16.536Z,99139.91
2019-03-16T15:07:44.313Z,99145.30
2019-03-16T15:10:12.190Z,99138.59
2019-03-16T15:12:39.882Z,99149.38
2019-03-16T15:15:09.434Z,99145.66
2019-03-16T15:17:37.323Z,99143.71
2019-03-16T15:20:05.472Z,99148.66
2019-03-16T15:22:33.267Z,99144.22
2019-03-16T15:25:02.351Z,99127.34
2019-03-16T15:27:30.032Z,99137.41
2019-03-16T15:30:27.822Z,99114.61
2019-03-16T15:33:05.363Z,99122.50
2019-03-16T15:36:02.986Z,99129.89
2019-03-16T15:39:15.044Z,99121.23
2019-03-16T15:42:04.461Z,99106.45
2019-03-16T15:44:38.255Z,99093.48
2019-03-16T15:47:30.035Z,99100.73
2019-03-16T15:50:10.303Z,99090.06
2019-03-16T15:53:51.921Z,99099.95
2019-03-16T15:55:51.204Z,99090.24
2019-03-16T15:58:24.720Z,99083.84
2019-03-16T16:01:49.943Z,99093.40
2019-03-16T16:04:18.738Z,99091.56
2019-03-16T16:06:46.724Z,99087.64
2019-03-16T16:09:14.545Z,99092.76
2019-03-16T16:11:42.402Z,99102.92
2019-03-16T16:14:10.098Z,99093.69
2019-03-16T16:16:38.052Z,99098.31
2019-03-16T16:19:06.307Z,99077.77
2019-03-16T16:21:36.928Z,99073.33
2019-03-16T16:24:08.010Z,99074.97
2019-03-16T16:26:35.927Z,99084.16
2019-03-16T16:29:03.871Z,99073.84
2019-03-16T16:31:31.835Z,99055.59
2019-03-16T16:34:02.690Z,99053.95
2019-03-16T16:36:29.523Z,99005.25
2019-03-16T16:38:57.646Z,99057.08
2019-03-16T16:41:25.916Z,99053.59
2019-03-16T16:43:53.742Z,99025.47
2019-03-16T16:46:21.802Z,99044.22
2019-03-16T16:48:49.472Z,99043.25
2019-03-16T16:51:20.032Z,99056.23
2019-03-16T16:53:48.072Z,99053.28
2019-03-16T16:56:18.522Z,99064.27
2019-03-16T16:58:46.291Z,99046.03
2019-03-16T17:01:28.513Z,99058.69
2019-03-16T17:03:44.892Z,99045.22
2019-03-16T17:06:12.762Z,99065.73
2019-03-16T17:08:40.839Z,99055.88
2019-03-16T17:11:12.874Z,99054.89
2019-03-16T17:13:42.762Z,99047.84
2019-03-16T17:16:17.427Z,99047.32
2019-03-16T17:18:48.072Z,99048.46
2019-03-16T17:21:24.162Z,99038.13
2019-03-16T17:23:52.147Z,99049.78
2019-03-16T17:26:21.020Z,99055.03
2019-03-16T17:28:48.877Z,99048.44
2019-03-16T17:31:16.772Z,99030.88
2019-03-16T17:33:44.647Z,99024.13
2019-03-16T17:36:12.437Z,99040.22
2019-03-16T17:39:20.737Z,99033.80
2019-03-16T17:41:50.789Z,99023.95
2019-03-16T17:44:34.701Z,99038.73
2019-03-16T17:47:44.646Z,99031.49
2019-03-16T17:57:28.507Z,99020.16
2019-03-16T18:00:05.338Z,99015.72
2019-03-16T18:02:34.832Z,99026.06
2019-03-16T18:05:06.256Z,99018.70
2019-03-16T18:07:34.188Z,99029.56
2019-03-16T18:10:01.919Z,99032.83
2019-03-16T18:12:29.901Z,99027.90
2019-03-16T18:14:57.857Z,99018.02
2019-03-16T18:17:25.652Z,99022.64
2019-03-16T18:19:53.367Z,99019.84
2019-03-16T18:22:21.218Z,99011.16
2019-03-16T18:24:49.213Z,99014.08
2019-03-16T18:27:29.672Z,99021.50
2019-03-16T18:30:00.168Z,99021.64
2019-03-16T18:32:28.507Z,99014.08
2019-03-16T18:34:56.347Z,99023.95
2019-03-16T18:37:24.162Z,99019.37
2019-03-16T18:39:52.127Z,99020.66
2019-03-16T18:42:20.063Z,99022.79
2019-03-16T18:44:49.997Z,99018.52
2019-03-16T18:47:17.943Z,99023.28
2019-03-16T18:49:56.490Z,99020.02
2019-03-16T18:53:09.142Z,99034.30
2019-03-16T18:55:37.967Z,99021.50
2019-03-16T18:58:37.696Z,99025.27
2019-03-16T19:01:43.737Z,99015.39
2019-03-16T19:05:34.696Z,99020.01
2019-03-16T19:08:16.047Z,99024.63
2019-03-16T19:11:22.766Z,99014.45
2019-03-16T19:15:12.086Z,99012.30
2019-03-16T19:25:25.890Z,99006.07
2019-03-16T19:29:10.994Z,98996.87
2019-03-16T19:38:42.496Z,99007.70
2019-03-16T19:41:12.427Z,98995.41
2019-03-16T19:43:40.328Z,99015.42
2019-03-16T19:46:14.979Z,99003.94
2019-03-16T19:48:42.956Z,98992.76
2019-03-16T19:51:13.896Z,98994.73
2019-03-16T19:53:41.730Z,98997.69
2019-03-16T19:56:12.801Z,98995.73
2019-03-16T19:59:00.235Z,98995.41
2019-03-16T20:01:20.153Z,98994.38
2019-03-16T20:03:48.326Z,98992.58
2019-03-16T20:06:26.291Z,98985.16
2019-03-16T20:15:03.025Z,98987.13
2019-03-16T20:21:20.235Z,98974.33
2019-03-16T20:21:57.170Z,98973.69
2019-03-16T20:30:55.940Z,98966.09
2019-03-16T20:34:51.542Z,98964.61
2019-03-16T20:38:00.660Z,98962.80
2019-03-16T20:41:35.701Z,98946.36
2019-03-16T20:52:35.720Z,98941.92
2019-03-16T21:05:22.894Z,98930.59
2019-03-16T21:07:54.634Z,98919.23
2019-03-16T21:10:24.159Z,98921.05
2019-03-16T21:12:56.402Z,98907.09
2019-03-16T21:15:24.265Z,98909.89
2019-03-16T21:17:51.930Z,98900.52
2019-03-16T21:20:44.304Z,98900.98
2019-03-16T21:23:28.520Z,98893.95
2019-03-16T21:25:59.124Z,98887.20
2019-03-16T21:28:29.608Z,98876.52
2019-03-16T21:31:00.935Z,98891.33
2019-03-16T21:33:30.044Z,98872.37
2019-03-16T21:35:58.197Z,98869.14
2019-03-16T21:38:26.016Z,98862.56
2019-03-16T21:40:53.860Z,98858.60
2019-03-16T21:43:23.895Z,98859.91
2019-03-16T21:45:51.917Z,98850.72
2019-03-16T21:48:19.680Z,98847.77
2019-03-16T21:50:47.415Z,98839.53
2019-03-16T21:53:27.219Z,98821.95
2019-03-16T21:56:44.804Z,98841.40
2019-03-16T21:59:26.469Z,98833.64
2019-03-16T22:01:54.402Z,98824.76
2019-03-16T22:04:22.060Z,98829.52
2019-03-16T22:06:49.550Z,98815.56
2019-03-16T22:09:19.690Z,98819.23
2019-03-16T22:12:02.256Z,98824.58
2019-03-16T22:14:29.797Z,98794.69
2019-03-16T22:16:57.236Z,98807.85
2019-03-16T22:19:24.630Z,98808.87
2019-03-16T22:21:52.095Z,98791.13
2019-03-16T22:24:21.140Z,98786.02
2019-03-16T22:26:48.575Z,98791.13
2019-03-16T22:29:15.976Z,98793.40
2019-03-16T22:31:43.506Z,98781.13
2019-03-16T22:34:10.870Z,98770.25
2019-03-16T22:36:38.326Z,98780.91
2019-03-16T22:39:07.038Z,98769.75
2019-03-16T22:41:34.460Z,98782.70
2019-03-16T22:44:01.825Z,98773.19
2019-03-16T22:46:29.290Z,98769.41
2019-03-16T22:48:56.861Z,98754.97
2019-03-16T22:51:27.115Z,98770.71
2019-03-16T22:53:54.705Z,98762.83
2019-03-16T22:56:22.426Z,98760.88
2019-03-16T22:58:49.828Z,98753.17
2019-03-16T23:01:19.856Z,98736.09
2019-03-16T23:03:47.445Z,98752.32
2019-03-16T23:06:15.120Z,98750.02
2019-03-16T23:08:42.764Z,98737.41
2019-03-16T23:11:10.517Z,98738.03
2019-03-16T23:13:38.257Z,98729.67
2019-03-16T23:16:05.975Z,98731.15
2019-03-16T23:18:33.340Z,98728.69
2019-03-16T23:21:00.820Z,98717.70
2019-03-16T23:23:28.224Z,98716.73
2019-03-16T23:25:55.616Z,98710.14
2019-03-16T23:28:22.994Z,98715.05
2019-03-16T23:30:50.400Z,98705.70
2019-03-16T23:33:17.826Z,98705.36
2019-03-16T23:35:45.249Z,98697.98
2019-03-16T23:38:13.002Z,98711.48
2019-03-16T23:40:40.735Z,98699.97
2019-03-16T23:43:08.551Z,98708.52
2019-03-16T23:45:36.422Z,98705.55
2019-03-16T23:48:04.625Z,98700.97
2019-03-16T23:50:33.200Z,98690.92
2019-03-16T23:53:00.900Z,98678.11
2019-03-16T23:55:28.694Z,98684.19
2019-03-16T23:57:56.626Z,98678.30
